createdAt,value
2018-02-14T00:00:57.503Z,72.80
2018-02-14T00:03:00.792Z,73.80
2018-02-14T00:07:39.756Z,73.70
2018-02-14T00:09:41.088Z,74.20
2018-02-14T00:11:42.155Z,73.50
2018-02-14T00:13:43.573Z,73.50
2018-02-14T00:15:44.655Z,73.60
2018-02-14T00:17:45.697Z,74.20
2018-02-14T00:19:46.732Z,73.80
2018-02-14T00:27:03.807Z,73.50
2018-02-14T00:31:52.051Z,73.20
2018-02-14T00:33:53.511Z,73.30
2018-02-14T00:35:57.104Z,73.40
2018-02-14T00:37:59.437Z,73.80
2018-02-14T00:44:56.884Z,78.00
2018-02-14T00:51:54.057Z,80.30
2018-02-14T01:01:17.482Z,80.60
2018-02-14T01:03:18.512Z,80.40
2018-02-14T01:13:10.297Z,80.40
2018-02-14T01:17:49.826Z,79.80
2018-02-14T01:20:05.817Z,79.20
2018-02-14T01:22:06.800Z,79.60
2018-02-14T01:26:45.493Z,79.10
2018-02-14T01:28:46.552Z,78.80
2018-02-14T01:30:47.596Z,78.50
2018-02-14T01:35:26.602Z,79.10
2018-02-14T01:40:11.403Z,78.10
2018-02-14T01:42:12.917Z,77.70
2018-02-14T01:46:43.155Z,77.80
2018-02-14T01:48:44.574Z,77.00
2018-02-14T01:50:46.596Z,76.70
2018-02-14T01:52:55.572Z,75.70
2018-02-14T02:11:44.901Z,75.10
2018-02-14T02:16:23.331Z,73.20
2018-02-14T02:21:02.784Z,73.20
2018-02-14T02:23:06.553Z,73.90
2018-02-14T02:25:07.769Z,73.80
2018-02-14T02:27:08.821Z,73.20
2018-02-14T02:34:24.659Z,73.50
2018-02-14T02:36:25.641Z,74.10
2018-02-14T02:41:04.192Z,76.10
2018-02-14T02:45:41.744Z,76.10
2018-02-14T02:47:56.175Z,77.00
2018-02-14T02:52:25.051Z,76.90
2018-02-14T02:54:26.068Z,76.20
2018-02-14T03:01:42.506Z,75.50
2018-02-14T03:03:43.574Z,75.30
2018-02-14T03:05:44.533Z,75.30
2018-02-14T03:07:45.635Z,75.20
2018-02-14T03:15:04.340Z,74.30
2018-02-14T03:17:05.657Z,74.10
2018-02-14T03:19:06.638Z,73.80
2018-02-14T03:21:08.518Z,73.80
2018-02-14T03:23:09.531Z,72.50
2018-02-14T03:25:10.596Z,73.10
2018-02-14T03:27:11.657Z,74.00
2018-02-14T03:31:50.795Z,72.30
2018-02-14T03:41:18.449Z,73.20
2018-02-14T03:45:49.234Z,73.50
2018-02-14T03:47:53.037Z,72.90
2018-02-14T03:52:32.440Z,73.00
2018-02-14T03:54:33.399Z,74.40
2018-02-14T03:56:34.444Z,73.40
2018-02-14T03:58:35.501Z,73.10
2018-02-14T04:00:37.242Z,73.00
2018-02-14T04:02:38.200Z,72.90
2018-02-14T04:04:39.910Z,73.10
2018-02-14T04:09:18.027Z,73.00
2018-02-14T04:13:50.305Z,73.10
2018-02-14T04:15:53.908Z,73.10
2018-02-14T04:20:33.746Z,73.10
2018-02-14T04:22:35.482Z,72.80
2018-02-14T04:24:37.713Z,72.80
2018-02-14T04:40:06.329Z,73.60
2018-02-14T04:42:07.336Z,73.80
2018-02-14T04:44:19.010Z,73.30
2018-02-14T04:46:20.024Z,73.00
2018-02-14T04:48:21.306Z,73.00
2018-02-14T04:50:22.292Z,73.90
2018-02-14T04:52:24.369Z,73.10
2018-02-14T05:06:53.361Z,73.80
2018-02-14T05:08:54.349Z,73.00
2018-02-14T05:13:33.500Z,75.00
2018-02-14T05:15:34.440Z,75.40
2018-02-14T05:17:35.380Z,74.20
2018-02-14T05:19:36.327Z,74.90
2018-02-14T05:21:37.299Z,76.10
2018-02-14T05:36:35.431Z,75.80
2018-02-14T05:38:36.411Z,76.20
2018-02-14T05:40:37.609Z,75.70
2018-02-14T05:42:38.583Z,76.70
2018-02-14T05:44:39.552Z,76.20
2018-02-14T05:54:13.724Z,75.50
2018-02-14T05:56:14.960Z,76.00
2018-02-14T05:58:15.955Z,75.80
2018-02-14T06:00:17.445Z,75.40
2018-02-14T06:04:54.915Z,76.30
2018-02-14T06:06:58.345Z,77.00
2018-02-14T06:11:39.559Z,77.90
2018-02-14T06:13:40.649Z,78.00
2018-02-14T06:15:48.436Z,77.40
2018-02-14T06:17:49.384Z,77.70
2018-02-14T06:22:27.615Z,78.30
2018-02-14T06:24:28.564Z,78.30
2018-02-14T06:26:29.543Z,78.60
2018-02-14T06:28:30.514Z,78.10
2018-02-14T06:30:31.491Z,78.10
2018-02-14T06:35:09.008Z,77.30
2018-02-14T06:37:10.232Z,77.40
2018-02-14T06:39:11.558Z,76.30
2018-02-14T06:46:31.802Z,76.20
2018-02-14T06:51:09.790Z,76.30
2018-02-14T06:53:31.417Z,76.50
2018-02-14T06:55:59.283Z,76.30
2018-02-14T07:00:28.370Z,77.00
2018-02-14T07:02:29.666Z,75.70
2018-02-14T07:04:31.300Z,76.60
2018-02-14T07:06:32.759Z,76.40
2018-02-14T07:08:34.040Z,75.90
2018-02-14T07:10:56.205Z,76.30
2018-02-14T07:15:37.921Z,75.50
2018-02-14T07:21:18.818Z,74.80
2018-02-14T07:23:29.566Z,74.00
2018-02-14T07:25:33.308Z,73.20
2018-02-14T07:27:51.336Z,72.70
2018-02-14T07:29:52.701Z,70.30
2018-02-14T07:31:53.965Z,67.40
2018-02-14T07:33:54.965Z,64.40
2018-02-14T07:35:55.916Z,61.00
2018-02-14T07:40:51.282Z,57.00
2018-02-14T07:42:53.099Z,55.40
2018-02-14T07:44:54.102Z,55.50
2018-02-14T07:46:55.085Z,55.50
2018-02-14T07:48:56.046Z,53.20
2018-02-14T07:50:57.090Z,53.20
2018-02-14T07:53:22.357Z,52.50
2018-02-14T07:55:23.339Z,50.50
2018-02-14T07:59:52.808Z,49.10
2018-02-14T08:01:53.788Z,49.10
2018-02-14T08:04:20.623Z,47.70
2018-02-14T08:06:22.335Z,48.60
2018-02-14T08:08:23.339Z,48.00
2018-02-14T08:10:24.326Z,47.10
2018-02-14T08:12:25.298Z,47.60
2018-02-14T08:14:49.766Z,47.10
2018-02-14T08:16:50.733Z,47.50
2018-02-14T08:18:58.080Z,46.90
2018-02-14T08:20:59.219Z,46.70
2018-02-14T08:25:28.570Z,46.80
2018-02-14T08:27:30.288Z,45.60
2018-02-14T08:29:31.222Z,45.50
2018-02-14T08:31:32.162Z,46.00
2018-02-14T08:33:33.111Z,45.40
2018-02-14T08:35:34.065Z,44.80
2018-02-14T08:37:50.435Z,46.40
2018-02-14T08:39:51.391Z,47.60
2018-02-14T08:41:52.373Z,49.00
2018-02-14T08:43:53.407Z,49.30
2018-02-14T08:45:58.203Z,50.10
2018-02-14T08:47:59.184Z,50.80
2018-02-14T08:50:00.152Z,50.30
2018-02-14T08:52:01.139Z,53.80
2018-02-14T08:54:02.119Z,53.40
2018-02-14T08:56:03.055Z,53.90
2018-02-14T08:58:03.996Z,55.20
2018-02-14T09:00:04.959Z,54.50
2018-02-14T09:02:05.927Z,54.30
2018-02-14T09:04:08.529Z,54.80
2018-02-14T09:06:09.663Z,55.80
2018-02-14T09:08:10.636Z,58.40
2018-02-14T09:10:12.227Z,54.80
2018-02-14T09:12:13.168Z,56.50
2018-02-14T09:14:22.923Z,54.40
2018-02-14T09:16:34.387Z,54.90
2018-02-14T09:18:48.797Z,55.70
2018-02-14T09:21:22.790Z,56.10
2018-02-14T09:23:23.942Z,53.60
2018-02-14T09:27:52.769Z,48.40
2018-02-14T09:29:53.743Z,47.70
2018-02-14T09:31:55.344Z,45.40
2018-02-14T09:36:25.188Z,44.10
2018-02-14T09:38:26.159Z,43.70
2018-02-14T09:40:27.112Z,42.50
2018-02-14T09:42:51.209Z,42.70
2018-02-14T09:44:52.662Z,41.60
2018-02-14T09:46:53.852Z,39.50
2018-02-14T09:49:01.746Z,39.60
2018-02-14T09:51:09.042Z,40.40
2018-02-14T09:53:28.074Z,39.00
2018-02-14T09:55:29.065Z,39.70
2018-02-14T09:57:30.104Z,38.90
2018-02-14T09:59:31.117Z,38.70
2018-02-14T10:01:32.086Z,39.10
2018-02-14T10:03:40.926Z,37.60
2018-02-14T10:05:41.937Z,37.20
2018-02-14T10:07:43.667Z,37.30
2018-02-14T10:09:44.614Z,37.40
2018-02-14T10:11:45.641Z,37.00
2018-02-14T10:13:46.621Z,36.80
2018-02-14T10:15:47.587Z,35.70
2018-02-14T10:17:48.698Z,35.90
2018-02-14T10:19:49.731Z,36.90
2018-02-14T10:21:50.707Z,36.20
2018-02-14T10:24:10.270Z,36.00
2018-02-14T10:28:39.144Z,33.60
2018-02-14T10:30:40.862Z,34.90
2018-02-14T10:32:41.900Z,34.90
2018-02-14T10:37:10.647Z,35.20
2018-02-14T10:39:11.647Z,34.70
2018-02-14T10:41:12.619Z,35.60
2018-02-14T10:45:45.543Z,33.60
2018-02-14T10:47:46.798Z,34.70
2018-02-14T10:49:47.793Z,34.10
2018-02-14T10:51:48.787Z,32.30
2018-02-14T10:54:10.103Z,34.40
2018-02-14T10:56:11.133Z,33.50
2018-02-14T10:58:12.116Z,31.90
2018-02-14T11:00:13.127Z,32.90
2018-02-14T11:02:14.118Z,32.40
2018-02-14T11:04:21.383Z,31.40
2018-02-14T11:06:39.553Z,32.70
2018-02-14T11:11:26.113Z,31.20
2018-02-14T11:13:27.387Z,31.20
2018-02-14T11:20:24.259Z,32.60
2018-02-14T11:22:25.321Z,32.50
2018-02-14T11:24:26.268Z,32.50
2018-02-14T11:26:27.246Z,31.70
2018-02-14T11:28:28.195Z,29.80
2018-02-14T11:30:55.575Z,30.20
2018-02-14T11:32:56.600Z,30.40
2018-02-14T11:34:57.548Z,30.10
2018-02-14T11:36:58.500Z,28.20
2018-02-14T11:53:57.247Z,28.40
2018-02-14T11:55:58.215Z,27.80
2018-02-14T11:57:59.177Z,28.50
2018-02-14T12:00:00.186Z,27.30
2018-02-14T12:02:07.703Z,27.60
2018-02-14T12:04:08.652Z,27.00
2018-02-14T12:06:09.590Z,28.10
2018-02-14T12:08:10.547Z,27.80
2018-02-14T12:12:39.703Z,27.60
2018-02-14T12:15:07.344Z,27.70
2018-02-14T12:19:36.516Z,27.30
2018-02-14T12:21:37.458Z,26.10
2018-02-14T12:23:38.430Z,26.60
2018-02-14T12:25:39.371Z,26.00
2018-02-14T12:27:40.322Z,25.50
2018-02-14T12:29:49.490Z,26.40
2018-02-14T12:31:50.438Z,25.80
2018-02-14T12:33:51.446Z,23.70
2018-02-14T12:35:52.378Z,24.40
2018-02-14T12:37:53.365Z,25.10
2018-02-14T12:40:08.103Z,25.70
2018-02-14T12:42:09.068Z,25.20
2018-02-14T12:44:10.783Z,25.90
2018-02-14T12:48:40.739Z,25.20
2018-02-14T12:50:41.663Z,25.20
2018-02-14T12:52:42.595Z,24.00
2018-02-14T12:55:07.914Z,25.00
2018-02-14T12:57:09.578Z,25.50
2018-02-14T12:59:10.619Z,25.30
2018-02-14T13:01:26.100Z,25.40
2018-02-14T13:03:27.789Z,25.10
2018-02-14T13:05:28.750Z,24.80
2018-02-14T13:07:29.683Z,25.80
2018-02-14T13:09:30.631Z,26.80
2018-02-14T13:11:31.682Z,26.00
2018-02-14T13:13:32.631Z,26.10
2018-02-14T13:15:33.566Z,25.30
2018-02-14T13:17:34.478Z,25.50
2018-02-14T13:19:36.196Z,25.40
2018-02-14T13:21:37.135Z,25.50
2018-02-14T13:23:38.066Z,25.00
2018-02-14T13:25:39.023Z,26.40
2018-02-14T13:27:40.021Z,26.00
2018-02-14T13:29:41.710Z,24.50
2018-02-14T13:31:42.642Z,24.50
2018-02-14T13:33:44.339Z,26.00
2018-02-14T13:35:45.270Z,26.00
2018-02-14T13:37:46.231Z,25.60
2018-02-14T13:39:47.226Z,25.60
2018-02-14T13:41:48.138Z,26.20
2018-02-14T13:43:49.082Z,26.00
2018-02-14T13:46:13.470Z,27.30
2018-02-14T13:48:14.401Z,27.80
2018-02-14T13:52:43.111Z,26.60
2018-02-14T13:57:07.938Z,26.50
2018-02-14T13:59:08.921Z,27.10
2018-02-14T14:01:09.886Z,26.50
2018-02-14T14:03:14.579Z,27.00
2018-02-14T14:05:15.553Z,26.90
2018-02-14T14:07:16.487Z,27.60
2018-02-14T14:09:17.421Z,27.50
2018-02-14T14:11:18.338Z,27.30
2018-02-14T14:13:19.289Z,26.50
2018-02-14T14:15:20.243Z,26.70
2018-02-14T14:17:21.247Z,26.50
2018-02-14T14:19:30.981Z,27.70
2018-02-14T14:21:45.736Z,26.30
2018-02-14T14:23:46.702Z,27.40
2018-02-14T14:25:47.655Z,26.50
2018-02-14T14:27:48.600Z,27.40
2018-02-14T14:29:49.570Z,26.60
2018-02-14T14:32:13.761Z,26.70
2018-02-14T14:34:15.623Z,27.60
2018-02-14T14:36:17.370Z,27.40
2018-02-14T14:40:46.563Z,28.70
2018-02-14T14:42:47.572Z,28.50
2018-02-14T14:44:49.304Z,29.00
2018-02-14T14:46:50.278Z,29.00
2018-02-14T14:48:51.991Z,27.80
2018-02-14T14:50:52.976Z,27.90
2018-02-14T14:52:53.910Z,28.70
2018-02-14T14:55:15.190Z,28.40
2018-02-14T14:57:16.210Z,28.20
2018-02-14T14:59:17.910Z,30.30
2018-02-14T15:01:18.880Z,31.10
2018-02-14T15:03:19.848Z,30.20
2018-02-14T15:05:20.808Z,29.00
2018-02-14T15:07:43.627Z,29.00
2018-02-14T15:09:44.581Z,28.80
2018-02-14T15:11:45.538Z,29.20
2018-02-14T15:13:46.611Z,30.20
2018-02-14T15:15:47.604Z,30.40
2018-02-14T15:17:48.559Z,29.80
2018-02-14T15:19:49.559Z,29.80
2018-02-14T15:21:50.515Z,30.50
2018-02-14T15:24:13.569Z,31.00
2018-02-14T15:28:44.419Z,31.10
2018-02-14T15:30:45.378Z,31.50
2018-02-14T15:32:47.106Z,30.80
2018-02-14T15:34:48.248Z,30.50
2018-02-14T15:36:49.231Z,30.70
2018-02-14T15:38:50.472Z,30.60
2018-02-14T15:40:51.462Z,31.20
2018-02-14T15:42:52.445Z,31.60
2018-02-14T15:44:53.432Z,32.30
2018-02-14T15:46:55.130Z,31.00
2018-02-14T15:48:56.087Z,30.90
2018-02-14T15:50:57.043Z,30.80
2018-02-14T15:52:58.002Z,30.80
2018-02-14T15:54:58.967Z,31.50
2018-02-14T15:56:59.914Z,32.00
2018-02-14T15:59:00.897Z,31.80
2018-02-14T16:01:01.847Z,32.20
2018-02-14T16:03:14.247Z,33.50
2018-02-14T16:05:15.198Z,34.30
2018-02-14T16:07:16.157Z,33.90
2018-02-14T16:09:17.098Z,35.40
2018-02-14T16:11:18.038Z,35.50
2018-02-14T16:13:18.961Z,35.30
2018-02-14T16:15:20.634Z,36.10
2018-02-14T16:17:21.628Z,36.10
2018-02-14T16:19:31.475Z,36.30
2018-02-14T16:21:32.596Z,36.80
2018-02-14T16:23:33.551Z,37.00
2018-02-14T16:25:34.519Z,37.30
2018-02-14T16:30:11.618Z,38.60
2018-02-14T16:32:12.546Z,39.50
2018-02-14T16:34:33.504Z,40.20
2018-02-14T16:36:34.638Z,39.70
2018-02-14T16:38:35.620Z,40.40
2018-02-14T16:40:36.588Z,41.30
2018-02-14T16:42:37.579Z,40.80
2018-02-14T16:44:38.524Z,40.90
2018-02-14T16:47:04.350Z,41.80
2018-02-14T16:49:05.339Z,42.90
2018-02-14T16:51:06.288Z,43.80
2018-02-14T16:53:08.000Z,43.80
2018-02-14T16:55:08.947Z,43.70
2018-02-14T16:57:10.111Z,44.40
2018-02-14T16:59:19.589Z,43.90
2018-02-14T17:01:21.319Z,44.90
2018-02-14T17:03:24.275Z,45.50
2018-02-14T17:05:25.226Z,45.40
2018-02-14T17:07:26.163Z,45.40
2018-02-14T17:09:27.098Z,45.20
2018-02-14T17:11:53.451Z,45.60
2018-02-14T17:13:54.414Z,45.30
2018-02-14T17:18:24.607Z,46.70
2018-02-14T17:22:53.466Z,46.40
2018-02-14T17:24:54.459Z,46.30
2018-02-14T17:26:55.461Z,46.80
2018-02-14T17:28:56.442Z,47.20
2018-02-14T17:30:57.367Z,47.80
2018-02-14T17:32:58.284Z,46.10
2018-02-14T17:34:59.948Z,46.10
2018-02-14T17:37:01.603Z,45.50
2018-02-14T17:39:03.299Z,45.00
2018-02-14T17:41:04.266Z,45.00
2018-02-14T17:43:05.238Z,43.80
2018-02-14T17:45:06.212Z,44.80
2018-02-14T17:49:44.603Z,43.60
2018-02-14T17:51:45.542Z,44.30
2018-02-14T17:56:13.704Z,43.80
2018-02-14T17:58:15.400Z,43.70
2018-02-14T18:00:16.430Z,43.60
2018-02-14T18:02:18.114Z,43.80
2018-02-14T18:04:19.078Z,43.60
2018-02-14T18:06:20.015Z,44.20
2018-02-14T18:08:21.050Z,44.70
2018-02-14T18:10:22.035Z,44.00
2018-02-14T18:12:22.980Z,44.80
2018-02-14T18:14:24.138Z,44.30
2018-02-14T18:16:25.118Z,44.80
2018-02-14T18:18:38.570Z,45.30
2018-02-14T18:20:46.319Z,44.90
2018-02-14T18:22:47.278Z,45.50
2018-02-14T18:24:48.283Z,44.60
2018-02-14T18:26:50.240Z,45.90
2018-02-14T18:28:51.352Z,45.20
2018-02-14T18:33:29.638Z,45.60
2018-02-14T18:35:30.588Z,45.60
2018-02-14T18:37:31.527Z,46.00
2018-02-14T18:39:32.451Z,46.10
2018-02-14T18:41:44.242Z,45.30
2018-02-14T18:43:45.922Z,45.20
2018-02-14T18:45:46.878Z,45.00
2018-02-14T18:47:47.879Z,46.10
2018-02-14T18:49:48.800Z,46.20
2018-02-14T18:51:49.810Z,45.40
2018-02-14T18:53:50.775Z,46.10
2018-02-14T18:55:51.736Z,46.30
2018-02-14T19:02:42.814Z,47.80
2018-02-14T19:04:43.766Z,47.90
2018-02-14T19:06:44.771Z,47.80
2018-02-14T19:08:45.840Z,47.80
2018-02-14T19:10:46.863Z,47.70
2018-02-14T19:12:47.863Z,48.10
2018-02-14T19:15:12.996Z,48.90
2018-02-14T19:17:14.053Z,49.80
2018-02-14T19:19:15.024Z,48.80
2018-02-14T19:21:39.868Z,48.90
2018-02-14T19:23:40.835Z,49.20
2018-02-14T19:25:41.785Z,49.10
2018-02-14T19:27:42.791Z,49.60
2018-02-14T19:29:52.216Z,49.60
2018-02-14T19:31:53.179Z,49.60
2018-02-14T19:33:54.126Z,50.10
2018-02-14T19:35:55.119Z,50.50
2018-02-14T19:37:56.050Z,49.40
2018-02-14T19:39:56.975Z,50.10
2018-02-14T19:42:09.530Z,49.50
2018-02-14T19:44:10.764Z,49.90
2018-02-14T19:46:11.721Z,50.60
2018-02-14T19:48:12.738Z,50.70
2018-02-14T19:50:13.698Z,49.90
2018-02-14T19:52:14.680Z,50.50
2018-02-14T19:54:16.368Z,50.10
2018-02-14T19:56:17.347Z,50.10
2018-02-14T19:58:22.336Z,51.00
2018-02-14T20:02:52.087Z,50.60
2018-02-14T20:04:53.051Z,50.60
2018-02-14T20:06:54.013Z,50.90
2018-02-14T20:09:21.536Z,50.30
2018-02-14T20:11:22.551Z,50.00
2018-02-14T20:13:23.539Z,50.80
2018-02-14T20:17:52.536Z,51.20
2018-02-14T20:20:04.014Z,51.80
2018-02-14T20:22:04.930Z,50.30
2018-02-14T20:24:05.927Z,50.40
2018-02-14T20:26:06.906Z,51.30
2018-02-14T20:28:07.847Z,51.30
2018-02-14T20:30:08.903Z,51.30
2018-02-14T20:32:10.085Z,51.60
2018-02-14T20:34:34.357Z,52.50
2018-02-14T20:36:36.167Z,52.40
2018-02-14T20:41:46.184Z,52.20
2018-02-14T20:43:47.912Z,53.60
2018-02-14T20:45:48.946Z,53.60
2018-02-14T20:47:49.907Z,52.30
2018-02-14T20:49:51.956Z,53.00
2018-02-14T20:51:52.950Z,53.00
2018-02-14T20:56:21.967Z,53.80
2018-02-14T20:58:26.412Z,53.70
2018-02-14T21:00:35.565Z,53.80
2018-02-14T21:02:36.568Z,54.00
2018-02-14T21:07:05.429Z,54.80
2018-02-14T21:09:19.751Z,54.90
2018-02-14T21:11:34.756Z,55.60
2018-02-14T21:16:03.445Z,55.70
2018-02-14T21:20:54.091Z,56.20
2018-02-14T21:22:55.130Z,57.40
2018-02-14T21:27:13.347Z,57.30
2018-02-14T21:31:42.273Z,57.10
2018-02-14T21:33:44.024Z,58.10
2018-02-14T21:35:45.732Z,57.30
2018-02-14T21:37:46.819Z,57.40
2018-02-14T21:39:47.814Z,58.50
2018-02-14T21:41:52.270Z,58.40
2018-02-14T21:43:53.275Z,58.20
2018-02-14T21:45:54.339Z,58.70
2018-02-14T21:47:55.262Z,59.10
2018-02-14T21:49:57.051Z,58.70
2018-02-14T21:51:58.051Z,58.70
2018-02-14T21:53:58.963Z,58.70
2018-02-14T21:56:00.415Z,59.00
2018-02-14T21:58:25.020Z,58.60
2018-02-14T22:00:26.008Z,58.20
2018-02-14T22:02:52.287Z,58.40
2018-02-14T22:07:22.170Z,58.10
2018-02-14T22:09:25.716Z,58.10
2018-02-14T22:11:26.680Z,58.00
2018-02-14T22:13:27.687Z,58.70
2018-02-14T22:15:28.695Z,58.70
2018-02-14T22:17:29.681Z,58.60
2018-02-14T22:19:30.691Z,58.60
2018-02-14T22:26:27.422Z,59.00
2018-02-14T22:28:28.387Z,59.60
2018-02-14T22:35:25.728Z,59.80
2018-02-14T22:37:26.739Z,59.90
2018-02-14T22:39:27.702Z,59.70
2018-02-14T22:41:28.720Z,60.30
2018-02-14T22:43:29.691Z,59.80
2018-02-14T22:45:30.674Z,60.20
2018-02-14T22:47:31.633Z,59.10
2018-02-14T22:49:33.492Z,58.90
2018-02-14T22:51:34.468Z,59.60
2018-02-14T22:53:35.498Z,59.90
2018-02-14T22:55:51.572Z,58.80
2018-02-14T22:57:52.639Z,60.40
2018-02-14T22:59:53.639Z,60.40
2018-02-14T23:01:54.600Z,60.40
2018-02-14T23:03:55.622Z,60.00
2018-02-14T23:06:00.148Z,60.10
2018-02-14T23:08:06.778Z,60.60
2018-02-14T23:10:07.982Z,60.60
2018-02-14T23:12:08.919Z,61.10
2018-02-14T23:14:09.929Z,60.50
2018-02-14T23:16:10.955Z,61.00
2018-02-14T23:18:11.972Z,61.10
2018-02-14T23:20:12.934Z,61.60
2018-02-14T23:22:13.918Z,60.70
2018-02-14T23:24:14.907Z,60.70
2018-02-14T23:26:15.858Z,62.40
2018-02-14T23:28:16.920Z,62.10
2018-02-14T23:30:18.011Z,62.90
2018-02-14T23:32:22.386Z,61.70
2018-02-14T23:37:21.277Z,63.00
2018-02-14T23:41:50.371Z,62.70
2018-02-14T23:44:24.439Z,63.20
2018-02-14T23:46:25.537Z,62.40
2018-02-14T23:48:27.339Z,63.20
2018-02-14T23:50:28.299Z,63.20
2018-02-14T23:52:29.348Z,63.40
2018-02-14T23:56:54.640Z,62.70
2018-02-14T23:58:56.402Z,62.50
